sensor_id;sensor_type;location;lat;lon;timestamp;pressure;altitude;pressure_sealevel;temperature;humidity
52319;BME280;38258;51.148;14.068;2024-03-23T00:54:26;97503.91;;;5.30;100.00
52319;BME280;38258;51.148;14.068;2024-03-23T00:56:52;97508.34;;;5.24;100.00
52319;BME280;38258;51.148;14.068;2024-03-23T00:59:18;97504.47;;;5.03;100.00
52319;BME280;38258;51.148;14.068;2024-03-23T01:01:44;97491.75;;;4.91;100.00
52319;BME280;38258;51.148;14.068;2024-03-23T01:04:11;97491.97;;;4.78;100.00
52319;BME280;38258;51.148;14.068;2024-03-23T01:06:36;97493.00;;;4.70;100.00
52319;BME280;38258;51.148;14.068;2024-03-23T01:09:03;97489.44;;;4.75;100.00
52319;BME280;38258;51.148;14.068;2024-03-23T01:11:28;97497.44;;;4.63;100.00
52319;BME280;38258;51.148;14.068;2024-03-23T01:13:54;97498.47;;;4.54;100.00
52319;BME280;38258;51.148;14.068;2024-03-23T01:16:21;97504.53;;;4.55;100.00
52319;BME280;38258;51.148;14.068;2024-03-23T01:18:47;97506.47;;;4.42;100.00
52319;BME280;38258;51.148;14.068;2024-03-23T01:21:13;97492.53;;;4.49;100.00
52319;BME280;38258;51.148;14.068;2024-03-23T01:23:40;97505.78;;;4.32;100.00
52319;BME280;38258;51.148;14.068;2024-03-23T01:26:05;97505.09;;;4.22;100.00
52319;BME280;38258;51.148;14.068;2024-03-23T01:28:32;97506.22;;;4.05;100.00
52319;BME280;38258;51.148;14.068;2024-03-23T01:30:57;97501.25;;;3.93;100.00
52319;BME280;38258;51.148;14.068;2024-03-23T01:33:24;97508.44;;;3.72;100.00
52319;BME280;38258;51.148;14.068;2024-03-23T01:35:49;97504.25;;;3.66;100.00
52319;BME280;38258;51.148;14.068;2024-03-23T01:38:15;97492.97;;;3.71;100.00
52319;BME280;38258;51.148;14.068;2024-03-23T01:40:41;97485.66;;;3.96;100.00
52319;BME280;38258;51.148;14.068;2024-03-23T01:43:08;97486.25;;;4.14;100.00
52319;BME280;38258;51.148;14.068;2024-03-23T01:45:34;97468.78;;;4.25;100.00
52319;BME280;38258;51.148;14.068;2024-03-23T01:48:01;97454.47;;;4.54;100.00
52319;BME280;38258;51.148;14.068;2024-03-23T01:50:27;97448.66;;;4.41;100.00
52319;BME280;38258;51.148;14.068;2024-03-23T01:52:54;97447.09;;;4.32;100.00
52319;BME280;38258;51.148;14.068;2024-03-23T01:55:20;97437.72;;;4.27;100.00
52319;BME280;38258;51.148;14.068;2024-03-23T01:57:47;97436.91;;;4.21;100.00
52319;BME280;38258;51.148;14.068;2024-03-23T02:00:13;97424.03;;;4.18;100.00
52319;BME280;38258;51.148;14.068;2024-03-23T02:02:46;97422.34;;;4.16;100.00
52319;BME280;38258;51.148;14.068;2024-03-23T02:05:12;97423.22;;;4.16;100.00
52319;BME280;38258;51.148;14.068;2024-03-23T02:07:40;97421.38;;;4.23;100.00
52319;BME280;38258;51.148;14.068;2024-03-23T02:10:07;97419.31;;;4.42;100.00
52319;BME280;38258;51.148;14.068;2024-03-23T02:12:34;97415.69;;;4.49;100.00
52319;BME280;38258;51.148;14.068;2024-03-23T02:15:00;97413.66;;;4.65;100.00
52319;BME280;38258;51.148;14.068;2024-03-23T02:17:28;97411.47;;;4.45;100.00
52319;BME280;38258;51.148;14.068;2024-03-23T02:19:54;97410.50;;;4.51;100.00
52319;BME280;38258;51.148;14.068;2024-03-23T02:22:20;97407.63;;;4.65;100.00
52319;BME280;38258;51.148;14.068;2024-03-23T02:24:46;97408.41;;;4.69;100.00
52319;BME280;38258;51.148;14.068;2024-03-23T02:27:12;97404.84;;;4.74;100.00
52319;BME280;38258;51.148;14.068;2024-03-23T02:29:38;97414.06;;;4.88;100.00
52319;BME280;38258;51.148;14.068;2024-03-23T02:32:04;97405.34;;;4.92;100.00
52319;BME280;38258;51.148;14.068;2024-03-23T02:34:30;97404.25;;;5.04;100.00
52319;BME280;38258;51.148;14.068;2024-03-23T02:36:57;97397.91;;;5.16;100.00
52319;BME280;38258;51.148;14.068;2024-03-23T02:39:22;97394.25;;;5.24;100.00
52319;BME280;38258;51.148;14.068;2024-03-23T02:41:49;97394.09;;;5.32;100.00
52319;BME280;38258;51.148;14.068;2024-03-23T02:44:14;97389.59;;;5.41;100.00
52319;BME280;38258;51.148;14.068;2024-03-23T02:46:41;97381.34;;;5.59;100.00
52319;BME280;38258;51.148;14.068;2024-03-23T02:49:06;97374.44;;;5.60;100.00
52319;BME280;38258;51.148;14.068;2024-03-23T02:51:33;97366.66;;;5.60;100.00
52319;BME280;38258;51.148;14.068;2024-03-23T02:53:59;97371.88;;;5.58;100.00
52319;BME280;38258;51.148;14.068;2024-03-23T02:56:25;97365.81;;;5.58;100.00
52319;BME280;38258;51.148;14.068;2024-03-23T02:58:51;97371.75;;;5.63;100.00
52319;BME280;38258;51.148;14.068;2024-03-23T03:01:17;97370.09;;;5.60;100.00
52319;BME280;38258;51.148;14.068;2024-03-23T03:03:43;97361.31;;;5.66;100.00
52319;BME280;38258;51.148;14.068;2024-03-23T03:06:09;97358.69;;;5.66;100.00
52319;BME280;38258;51.148;14.068;2024-03-23T03:08:35;97358.72;;;5.64;100.00
52319;BME280;38258;51.148;14.068;2024-03-23T03:11:02;97349.84;;;5.73;100.00
52319;BME280;38258;51.148;14.068;2024-03-23T03:13:27;97358.28;;;5.83;100.00
52319;BME280;38258;51.148;14.068;2024-03-23T03:15:53;97358.88;;;5.93;100.00
52319;BME280;38258;51.148;14.068;2024-03-23T03:18:19;97353.69;;;5.93;100.00
52319;BME280;38258;51.148;14.068;2024-03-23T03:20:45;97353.59;;;5.98;100.00
52319;BME280;38258;51.148;14.068;2024-03-23T03:23:11;97345.72;;;6.01;100.00
52319;BME280;38258;51.148;14.068;2024-03-23T03:25:37;97338.03;;;5.96;100.00
52319;BME280;38258;51.148;14.068;2024-03-23T03:28:03;97326.00;;;6.27;100.00
52319;BME280;38258;51.148;14.068;2024-03-23T03:30:30;97334.69;;;6.26;100.00
52319;BME280;38258;51.148;14.068;2024-03-23T03:32:56;97329.63;;;6.21;100.00
52319;BME280;38258;51.148;14.068;2024-03-23T03:35:22;97322.41;;;6.31;100.00
52319;BME280;38258;51.148;14.068;2024-03-23T03:37:48;97322.69;;;6.51;100.00
52319;BME280;38258;51.148;14.068;2024-03-23T03:40:15;97325.66;;;6.39;100.00
52319;BME280;38258;51.148;14.068;2024-03-23T03:42:41;97319.16;;;6.54;100.00
52319;BME280;38258;51.148;14.068;2024-03-23T03:45:07;97317.91;;;6.68;100.00
52319;BME280;38258;51.148;14.068;2024-03-23T03:47:33;97311.50;;;6.49;100.00
52319;BME280;38258;51.148;14.068;2024-03-23T03:49:59;97307.28;;;6.45;100.00
52319;BME280;38258;51.148;14.068;2024-03-23T03:52:25;97299.47;;;6.47;100.00
52319;BME280;38258;51.148;14.068;2024-03-23T03:54:51;97318.69;;;6.41;100.00
52319;BME280;38258;51.148;14.068;2024-03-23T03:57:17;97310.66;;;6.49;100.00
52319;BME280;38258;51.148;14.068;2024-03-23T03:59:44;97299.41;;;6.48;100.00
52319;BME280;38258;51.148;14.068;2024-03-23T04:02:09;97291.59;;;6.48;100.00
52319;BME280;38258;51.148;14.068;2024-03-23T04:04:36;97281.63;;;6.34;100.00
52319;BME280;38258;51.148;14.068;2024-03-23T04:07:02;97277.56;;;6.26;100.00
52319;BME280;38258;51.148;14.068;2024-03-23T04:09:30;97278.06;;;6.07;100.00
52319;BME280;38258;51.148;14.068;2024-03-23T04:11:56;97289.34;;;6.06;100.00
52319;BME280;38258;51.148;14.068;2024-03-23T04:14:22;97286.13;;;5.96;100.00
52319;BME280;38258;51.148;14.068;2024-03-23T04:16:48;97286.13;;;5.96;100.00
52319;BME280;38258;51.148;14.068;2024-03-23T04:19:15;97276.50;;;6.01;100.00
52319;BME280;38258;51.148;14.068;2024-03-23T04:21:40;97285.19;;;5.99;100.00
52319;BME280;38258;51.148;14.068;2024-03-23T04:24:07;97282.53;;;6.00;100.00
52319;BME280;38258;51.148;14.068;2024-03-23T04:26:41;97272.16;;;6.02;100.00
52319;BME280;38258;51.148;14.068;2024-03-23T04:29:07;97264.38;;;6.02;100.00
52319;BME280;38258;51.148;14.068;2024-03-23T04:31:34;97272.22;;;5.99;100.00
52319;BME280;38258;51.148;14.068;2024-03-23T04:34:02;97266.97;;;6.00;100.00
52319;BME280;38258;51.148;14.068;2024-03-23T04:36:29;97268.66;;;6.03;100.00
52319;BME280;38258;51.148;14.068;2024-03-23T04:38:56;97261.34;;;6.17;100.00
52319;BME280;38258;51.148;14.068;2024-03-23T04:41:23;97249.34;;;6.13;100.00
52319;BME280;38258;51.148;14.068;2024-03-23T04:43:49;97263.13;;;6.15;100.00
52319;BME280;38258;51.148;14.068;2024-03-23T04:46:16;97250.69;;;6.27;100.00
52319;BME280;38258;51.148;14.068;2024-03-23T04:48:41;97251.31;;;6.35;100.00
52319;BME280;38258;51.148;14.068;2024-03-23T04:51:10;97218.34;;;6.37;100.00
52319;BME280;38258;51.148;14.068;2024-03-23T04:53:37;97228.94;;;6.31;100.00
52319;BME280;38258;51.148;14.068;2024-03-23T04:56:04;97239.88;;;6.41;100.00
52319;BME280;38258;51.148;14.068;2024-03-23T04:58:30;97227.94;;;6.35;100.00
52319;BME280;38258;51.148;14.068;2024-03-23T05:00:56;97235.72;;;6.35;100.00
52319;BME280;38258;51.148;14.068;2024-03-23T05:03:25;97215.75;;;6.37;100.00
52319;BME280;38258;51.148;14.068;2024-03-23T05:05:51;97206.88;;;6.44;100.00
52319;BME280;38258;51.148;14.068;2024-03-23T05:08:22;97219.22;;;6.38;100.00
52319;BME280;38258;51.148;14.068;2024-03-23T05:10:47;97184.91;;;6.26;100.00
52319;BME280;38258;51.148;14.068;2024-03-23T05:13:14;97171.53;;;6.40;100.00
52319;BME280;38258;51.148;14.068;2024-03-23T05:15:39;97161.41;;;6.31;100.00
52319;BME280;38258;51.148;14.068;2024-03-23T05:18:10;97167.16;;;6.12;100.00
52319;BME280;38258;51.148;14.068;2024-03-23T05:20:38;97144.59;;;5.84;100.00
52319;BME280;38258;51.148;14.068;2024-03-23T05:23:07;97149.88;;;5.81;100.00
52319;BME280;38258;51.148;14.068;2024-03-23T05:25:35;97148.91;;;5.84;100.00
52319;BME280;38258;51.148;14.068;2024-03-23T05:28:04;97147.56;;;6.02;100.00
52319;BME280;38258;51.148;14.068;2024-03-23T05:30:29;97145.50;;;6.13;100.00
52319;BME280;38258;51.148;14.068;2024-03-23T05:32:56;97149.22;;;6.04;100.00
52319;BME280;38258;51.148;14.068;2024-03-23T05:35:21;97138.78;;;6.06;100.00
52319;BME280;38258;51.148;14.068;2024-03-23T05:37:50;97122.84;;;5.88;100.00
52319;BME280;38258;51.148;14.068;2024-03-23T05:40:15;97107.38;;;5.85;100.00
52319;BME280;38258;51.148;14.068;2024-03-23T05:42:42;97113.47;;;6.13;100.00
52319;BME280;38258;51.148;14.068;2024-03-23T05:45:08;97075.50;;;6.37;100.00
52319;BME280;38258;51.148;14.068;2024-03-23T05:47:34;97074.81;;;6.32;100.00
52319;BME280;38258;51.148;14.068;2024-03-23T05:50:00;97077.81;;;6.46;100.00
52319;BME280;38258;51.148;14.068;2024-03-23T05:52:29;97071.44;;;6.55;100.00
52319;BME280;38258;51.148;14.068;2024-03-23T05:54:58;97072.59;;;6.46;100.00
52319;BME280;38258;51.148;14.068;2024-03-23T05:57:23;97090.34;;;6.60;100.00
52319;BME280;38258;51.148;14.068;2024-03-23T05:59:53;97088.09;;;6.49;100.00
52319;BME280;38258;51.148;14.068;2024-03-23T06:02:19;97105.56;;;6.71;100.00
52319;BME280;38258;51.148;14.068;2024-03-23T06:04:47;97096.25;;;6.91;100.00
52319;BME280;38258;51.148;14.068;2024-03-23T06:07:12;97090.63;;;7.03;100.00
52319;BME280;38258;51.148;14.068;2024-03-23T06:09:43;97101.28;;;6.96;100.00
52319;BME280;38258;51.148;14.068;2024-03-23T06:12:08;97088.34;;;6.94;100.00
52319;BME280;38258;51.148;14.068;2024-03-23T06:14:35;97088.06;;;7.02;100.00
52319;BME280;38258;51.148;14.068;2024-03-23T06:17:01;97059.34;;;6.81;100.00
52319;BME280;38258;51.148;14.068;2024-03-23T06:19:27;97049.31;;;6.96;100.00
52319;BME280;38258;51.148;14.068;2024-03-23T06:21:56;97049.63;;;6.86;100.00
52319;BME280;38258;51.148;14.068;2024-03-23T06:24:22;97058.31;;;6.85;100.00
52319;BME280;38258;51.148;14.068;2024-03-23T06:26:48;97033.75;;;6.94;100.00
52319;BME280;38258;51.148;14.068;2024-03-23T06:29:15;97033.94;;;6.89;100.00
52319;BME280;38258;51.148;14.068;2024-03-23T06:31:40;97029.91;;;7.04;100.00
52319;BME280;38258;51.148;14.068;2024-03-23T06:34:07;97014.38;;;7.03;100.00
52319;BME280;38258;51.148;14.068;2024-03-23T06:36:34;97010.41;;;7.16;100.00
52319;BME280;38258;51.148;14.068;2024-03-23T06:38:59;96999.72;;;7.24;100.00
52319;BME280;38258;51.148;14.068;2024-03-23T06:41:26;96993.38;;;7.33;100.00
52319;BME280;38258;51.148;14.068;2024-03-23T06:43:52;96998.50;;;7.34;100.00
52319;BME280;38258;51.148;14.068;2024-03-23T06:46:20;96979.66;;;7.28;100.00
52319;BME280;38258;51.148;14.068;2024-03-23T06:48:45;96984.66;;;7.10;100.00
52319;BME280;38258;51.148;14.068;2024-03-23T06:51:12;96979.47;;;7.10;100.00
52319;BME280;38258;51.148;14.068;2024-03-23T06:53:37;96974.28;;;7.08;100.00
52319;BME280;38258;51.148;14.068;2024-03-23T06:56:04;96964.41;;;6.95;100.00
52319;BME280;38258;51.148;14.068;2024-03-23T06:58:30;96974.00;;;7.16;100.00
52319;BME280;38258;51.148;14.068;2024-03-23T07:00:57;96953.41;;;7.12;100.00
52319;BME280;38258;51.148;14.068;2024-03-23T07:03:22;96951.22;;;7.23;100.00
52319;BME280;38258;51.148;14.068;2024-03-23T07:05:51;96935.28;;;7.32;100.00
52319;BME280;38258;51.148;14.068;2024-03-23T07:08:16;96943.34;;;7.26;100.00
52319;BME280;38258;51.148;14.068;2024-03-23T07:10:46;96940.72;;;7.26;100.00
52319;BME280;38258;51.148;14.068;2024-03-23T07:13:12;96947.19;;;7.38;100.00
52319;BME280;38258;51.148;14.068;2024-03-23T07:15:38;96948.94;;;7.38;100.00
52319;BME280;38258;51.148;14.068;2024-03-23T07:18:04;96927.16;;;7.18;100.00
52319;BME280;38258;51.148;14.068;2024-03-23T07:20:30;96921.38;;;7.33;100.00
52319;BME280;38258;51.148;14.068;2024-03-23T07:22:56;96919.06;;;7.26;100.00
52319;BME280;38258;51.148;14.068;2024-03-23T07:25:23;96931.16;;;7.27;100.00
52319;BME280;38258;51.148;14.068;2024-03-23T07:27:50;96941.44;;;7.30;100.00
52319;BME280;38258;51.148;14.068;2024-03-23T07:30:17;96955.53;;;7.24;100.00
52319;BME280;38258;51.148;14.068;2024-03-23T07:32:44;96948.41;;;7.29;100.00
52319;BME280;38258;51.148;14.068;2024-03-23T07:35:11;96945.22;;;7.45;100.00
52319;BME280;38258;51.148;14.068;2024-03-23T07:37:36;96940.13;;;7.42;100.00
52319;BME280;38258;51.148;14.068;2024-03-23T07:40:03;96943.88;;;7.57;100.00
52319;BME280;38258;51.148;14.068;2024-03-23T07:42:29;96928.81;;;7.65;100.00
52319;BME280;38258;51.148;14.068;2024-03-23T07:44:55;96900.66;;;7.75;100.00
52319;BME280;38258;51.148;14.068;2024-03-23T07:47:22;96901.19;;;7.83;100.00
52319;BME280;38258;51.148;14.068;2024-03-23T07:49:48;96906.38;;;8.05;100.00
52319;BME280;38258;51.148;14.068;2024-03-23T07:52:14;96901.66;;;8.14;100.00
52319;BME280;38258;51.148;14.068;2024-03-23T07:54:40;96891.56;;;8.27;100.00
52319;BME280;38258;51.148;14.068;2024-03-23T07:57:06;96871.91;;;8.40;100.00
52319;BME280;38258;51.148;14.068;2024-03-23T07:59:32;96873.97;;;8.53;100.00
52319;BME280;38258;51.148;14.068;2024-03-23T08:01:59;96863.09;;;8.63;100.00
52319;BME280;38258;51.148;14.068;2024-03-23T08:04:27;96861.50;;;8.59;100.00
52319;BME280;38258;51.148;14.068;2024-03-23T08:06:53;96854.69;;;8.57;100.00
52319;BME280;38258;51.148;14.068;2024-03-23T08:09:19;96860.22;;;8.49;100.00
52319;BME280;38258;51.148;14.068;2024-03-23T08:11:44;96849.78;;;8.49;100.00
52319;BME280;38258;51.148;14.068;2024-03-23T08:14:12;96840.50;;;8.43;100.00
52319;BME280;38258;51.148;14.068;2024-03-23T08:16:37;96836.38;;;8.77;100.00
52319;BME280;38258;51.148;14.068;2024-03-23T08:19:03;96834.00;;;8.54;100.00
52319;BME280;38258;51.148;14.068;2024-03-23T08:21:30;96825.53;;;8.87;100.00
52319;BME280;38258;51.148;14.068;2024-03-23T08:23:56;96820.31;;;8.87;100.00
52319;BME280;38258;51.148;14.068;2024-03-23T08:26:22;96819.81;;;8.98;100.00
52319;BME280;38258;51.148;14.068;2024-03-23T08:28:48;96817.25;;;8.96;100.00
52319;BME280;38258;51.148;14.068;2024-03-23T08:31:14;96800.91;;;9.12;100.00
52319;BME280;38258;51.148;14.068;2024-03-23T08:33:40;96799.66;;;9.01;100.00
52319;BME280;38258;51.148;14.068;2024-03-23T08:36:09;96784.34;;;9.13;100.00
52319;BME280;38258;51.148;14.068;2024-03-23T08:38:37;96791.16;;;9.15;100.00
52319;BME280;38258;51.148;14.068;2024-03-23T08:41:10;96777.72;;;9.23;100.00
52319;BME280;38258;51.148;14.068;2024-03-23T08:43:41;96785.00;;;9.16;100.00
52319;BME280;38258;51.148;14.068;2024-03-23T08:46:15;96771.69;;;9.23;100.00
52319;BME280;38258;51.148;14.068;2024-03-23T08:48:46;96767.28;;;9.05;100.00
52319;BME280;38258;51.148;14.068;2024-03-23T08:51:15;96761.06;;;9.08;100.00
52319;BME280;38258;51.148;14.068;2024-03-23T08:53:42;96764.94;;;9.18;100.00
52319;BME280;38258;51.148;14.068;2024-03-23T08:56:08;96755.44;;;9.35;100.00
52319;BME280;38258;51.148;14.068;2024-03-23T08:58:36;96767.94;;;9.28;100.00
52319;BME280;38258;51.148;14.068;2024-03-23T09:01:08;96762.53;;;9.14;100.00
52319;BME280;38258;51.148;14.068;2024-03-23T09:03:35;96764.88;;;9.01;100.00
52319;BME280;38258;51.148;14.068;2024-03-23T09:06:02;96765.75;;;9.01;100.00
52319;BME280;38258;51.148;14.068;2024-03-23T09:08:32;96767.28;;;9.05;100.00
52319;BME280;38258;51.148;14.068;2024-03-23T09:10:57;96777.81;;;9.04;100.00
52319;BME280;38258;51.148;14.068;2024-03-23T09:13:24;96770.97;;;9.19;100.00
52319;BME280;38258;51.148;14.068;2024-03-23T09:15:50;96771.84;;;9.37;100.00
52319;BME280;38258;51.148;14.068;2024-03-23T09:18:17;96771.41;;;9.64;100.00
52319;BME280;38258;51.148;14.068;2024-03-23T09:20:43;96761.72;;;9.66;100.00
52319;BME280;38258;51.148;14.068;2024-03-23T09:23:09;96768.81;;;9.80;100.00
52319;BME280;38258;51.148;14.068;2024-03-23T09:25:39;96773.16;;;10.15;100.00
52319;BME280;38258;51.148;14.068;2024-03-23T09:28:06;96766.44;;;10.27;100.00
52319;BME280;38258;51.148;14.068;2024-03-23T09:30:34;96767.44;;;10.24;100.00
52319;BME280;38258;51.148;14.068;2024-03-23T09:33:02;96762.28;;;10.23;100.00
52319;BME280;38258;51.148;14.068;2024-03-23T09:35:28;96762.72;;;10.31;100.00
52319;BME280;38258;51.148;14.068;2024-03-23T09:37:54;96777.41;;;10.33;100.00
52319;BME280;38258;51.148;14.068;2024-03-23T09:40:20;96768.44;;;10.22;100.00
52319;BME280;38258;51.148;14.068;2024-03-23T09:42:52;96779.00;;;10.36;100.00
52319;BME280;38258;51.148;14.068;2024-03-23T09:45:23;96772.56;;;10.43;100.00
52319;BME280;38258;51.148;14.068;2024-03-23T09:47:52;96762.31;;;10.39;100.00
52319;BME280;38258;51.148;14.068;2024-03-23T09:50:18;96770.53;;;10.49;100.00
52319;BME280;38258;51.148;14.068;2024-03-23T09:52:47;96766.69;;;10.38;100.00
52319;BME280;38258;51.148;14.068;2024-03-23T09:55:13;96783.44;;;10.18;100.00
52319;BME280;38258;51.148;14.068;2024-03-23T09:57:41;96786.59;;;10.07;100.00
52319;BME280;38258;51.148;14.068;2024-03-23T10:00:06;96787.63;;;10.04;100.00
52319;BME280;38258;51.148;14.068;2024-03-23T10:02:34;96777.44;;;10.16;100.00
52319;BME280;38258;51.148;14.068;2024-03-23T10:05:00;96800.41;;;9.75;100.00
52319;BME280;38258;51.148;14.068;2024-03-23T10:07:26;96801.19;;;9.78;100.00
52319;BME280;38258;51.148;14.068;2024-03-23T10:09:53;96818.34;;;9.46;100.00
52319;BME280;38258;51.148;14.068;2024-03-23T10:12:20;96838.44;;;9.27;100.00
52319;BME280;38258;51.148;14.068;2024-03-23T10:14:46;96844.31;;;9.13;100.00
52319;BME280;38258;51.148;14.068;2024-03-23T10:17:21;96847.88;;;8.73;100.00
52319;BME280;38258;51.148;14.068;2024-03-23T10:19:50;96855.91;;;8.48;100.00
52319;BME280;38258;51.148;14.068;2024-03-23T10:22:18;96893.78;;;8.15;100.00
52319;BME280;38258;51.148;14.068;2024-03-23T10:24:44;96917.38;;;7.25;100.00
52319;BME280;38258;51.148;14.068;2024-03-23T10:27:18;96942.31;;;6.59;100.00
52319;BME280;38258;51.148;14.068;2024-03-23T10:29:44;96961.44;;;6.56;100.00
52319;BME280;38258;51.148;14.068;2024-03-23T10:32:11;96992.34;;;6.13;100.00
52319;BME280;38258;51.148;14.068;2024-03-23T10:34:37;97005.06;;;5.92;100.00
52319;BME280;38258;51.148;14.068;2024-03-23T10:37:04;97022.88;;;5.76;100.00
52319;BME280;38258;51.148;14.068;2024-03-23T10:39:32;97029.00;;;5.74;100.00
52319;BME280;38258;51.148;14.068;2024-03-23T10:42:07;97048.06;;;5.73;100.00
52319;BME280;38258;51.148;14.068;2024-03-23T10:44:33;97059.50;;;5.35;100.00
52319;BME280;38258;51.148;14.068;2024-03-23T10:47:01;97081.59;;;5.19;100.00
52319;BME280;38258;51.148;14.068;2024-03-23T10:49:31;97107.59;;;4.83;100.00
52319;BME280;38258;51.148;14.068;2024-03-23T10:51:58;97116.63;;;4.31;100.00
52319;BME280;38258;51.148;14.068;2024-03-23T10:54:25;97129.34;;;4.03;100.00
52319;BME280;38258;51.148;14.068;2024-03-23T10:56:57;97143.91;;;4.07;100.00
52319;BME280;38258;51.148;14.068;2024-03-23T10:59:25;97165.91;;;3.87;100.00
52319;BME280;38258;51.148;14.068;2024-03-23T11:01:59;97165.16;;;3.80;100.00
52319;BME280;38258;51.148;14.068;2024-03-23T11:04:37;97192.00;;;3.75;100.00
52319;BME280;38258;51.148;14.068;2024-03-23T11:09:48;97211.81;;;3.76;100.00
52319;BME280;38258;51.148;14.068;2024-03-23T11:14:48;97223.13;;;3.72;100.00
52319;BME280;38258;51.148;14.068;2024-03-23T11:17:22;97222.38;;;3.65;100.00
52319;BME280;38258;51.148;14.068;2024-03-23T11:20:01;97222.47;;;3.60;100.00
52319;BME280;38258;51.148;14.068;2024-03-23T11:22:41;97241.38;;;3.62;100.00
52319;BME280;38258;51.148;14.068;2024-03-23T11:27:39;97251.31;;;3.37;100.00
52319;BME280;38258;51.148;14.068;2024-03-23T11:30:16;97260.50;;;3.55;100.00
52319;BME280;38258;51.148;14.068;2024-03-23T11:32:46;97250.88;;;3.62;100.00
52319;BME280;38258;51.148;14.068;2024-03-23T11:35:34;97273.28;;;3.61;100.00
52319;BME280;38258;51.148;14.068;2024-03-23T11:38:14;97281.09;;;3.08;100.00
52319;BME280;38258;51.148;14.068;2024-03-23T11:40:41;97287.59;;;3.32;100.00
52319;BME280;38258;51.148;14.068;2024-03-23T11:43:09;97291.81;;;3.36;100.00
52319;BME280;38258;51.148;14.068;2024-03-23T11:48:10;97306.44;;;3.39;100.00
52319;BME280;38258;51.148;14.068;2024-03-23T11:50:37;97319.63;;;3.23;100.00
52319;BME280;38258;51.148;14.068;2024-03-23T11:53:11;97323.28;;;3.08;100.00
52319;BME280;38258;51.148;14.068;2024-03-23T11:56:03;97332.41;;;3.30;100.00
52319;BME280;38258;51.148;14.068;2024-03-23T11:58:28;97334.41;;;3.14;100.00
52319;BME280;38258;51.148;14.068;2024-03-23T12:00:58;97340.75;;;2.92;100.00
52319;BME280;38258;51.148;14.068;2024-03-23T12:03:26;97340.53;;;3.08;100.00
52319;BME280;38258;51.148;14.068;2024-03-23T12:05:53;97341.41;;;3.07;100.00
52319;BME280;38258;51.148;14.068;2024-03-23T12:11:04;97346.38;;;3.19;100.00
52319;BME280;38258;51.148;14.068;2024-03-23T12:13:31;97327.03;;;3.44;100.00
52319;BME280;38258;51.148;14.068;2024-03-23T12:16:18;97340.72;;;3.50;100.00
52319;BME280;38258;51.148;14.068;2024-03-23T12:18:46;97315.09;;;3.36;100.00
52319;BME280;38258;51.148;14.068;2024-03-23T12:21:13;97317.38;;;3.55;100.00
52319;BME280;38258;51.148;14.068;2024-03-23T12:23:39;97325.19;;;3.52;100.00
52319;BME280;38258;51.148;14.068;2024-03-23T12:26:05;97332.09;;;3.50;100.00
52319;BME280;38258;51.148;14.068;2024-03-23T12:28:32;97325.53;;;3.82;100.00
52319;BME280;38258;51.148;14.068;2024-03-23T12:30:58;97331.22;;;3.51;100.00
52319;BME280;38258;51.148;14.068;2024-03-23T12:33:24;97337.88;;;3.64;100.00
52319;BME280;38258;51.148;14.068;2024-03-23T12:35:50;97337.88;;;3.66;100.00
52319;BME280;38258;51.148;14.068;2024-03-23T12:38:17;97333.78;;;4.01;100.00
52319;BME280;38258;51.148;14.068;2024-03-23T12:40:47;97321.19;;;3.82;100.00
52319;BME280;38258;51.148;14.068;2024-03-23T12:43:14;97330.44;;;3.94;100.00
52319;BME280;38258;51.148;14.068;2024-03-23T12:45:39;97324.13;;;3.64;100.00
52319;BME280;38258;51.148;14.068;2024-03-23T12:48:06;97314.72;;;3.60;100.00
52319;BME280;38258;51.148;14.068;2024-03-23T12:50:32;97318.19;;;3.57;100.00
52319;BME280;38258;51.148;14.068;2024-03-23T12:52:58;97333.44;;;3.71;100.00
52319;BME280;38258;51.148;14.068;2024-03-23T12:55:24;97348.53;;;3.46;100.00
52319;BME280;38258;51.148;14.068;2024-03-23T12:57:50;97334.84;;;3.41;100.00
52319;BME280;38258;51.148;14.068;2024-03-23T13:00:16;97364.00;;;3.50;100.00
52319;BME280;38258;51.148;14.068;2024-03-23T13:02:42;97367.31;;;3.59;100.00
52319;BME280;38258;51.148;14.068;2024-03-23T13:05:08;97369.84;;;3.62;100.00
52319;BME280;38258;51.148;14.068;2024-03-23T13:07:35;97362.84;;;3.65;100.00
52319;BME280;38258;51.148;14.068;2024-03-23T13:10:00;97367.69;;;3.86;100.00
52319;BME280;38258;51.148;14.068;2024-03-23T13:12:27;97349.69;;;3.81;100.00
52319;BME280;38258;51.148;14.068;2024-03-23T13:14:52;97340.03;;;3.89;100.00
52319;BME280;38258;51.148;14.068;2024-03-23T13:17:19;97321.94;;;3.89;100.00
52319;BME280;38258;51.148;14.068;2024-03-23T13:19:44;97312.53;;;3.85;100.00
52319;BME280;38258;51.148;14.068;2024-03-23T13:22:10;97318.75;;;3.75;100.00
52319;BME280;38258;51.148;14.068;2024-03-23T13:24:37;97325.56;;;3.79;100.00
52319;BME280;38258;51.148;14.068;2024-03-23T13:27:04;97348.53;;;3.98;100.00
52319;BME280;38258;51.148;14.068;2024-03-23T13:29:30;97379.25;;;3.64;100.00
52319;BME280;38258;51.148;14.068;2024-03-23T13:31:57;97391.50;;;4.05;100.00
52319;BME280;38258;51.148;14.068;2024-03-23T13:34:22;97395.22;;;3.90;100.00
52319;BME280;38258;51.148;14.068;2024-03-23T13:36:48;97400.75;;;3.70;100.00
52319;BME280;38258;51.148;14.068;2024-03-23T13:39:14;97413.47;;;3.82;100.00
52319;BME280;38258;51.148;14.068;2024-03-23T13:41:45;97429.97;;;3.75;100.00
52319;BME280;38258;51.148;14.068;2024-03-23T13:44:12;97432.97;;;4.02;100.00
52319;BME280;38258;51.148;14.068;2024-03-23T13:46:39;97433.56;;;4.18;100.00
52319;BME280;38258;51.148;14.068;2024-03-23T13:49:06;97435.44;;;4.08;100.00
52319;BME280;38258;51.148;14.068;2024-03-23T13:51:32;97415.44;;;4.18;100.00
52319;BME280;38258;51.148;14.068;2024-03-23T13:53:58;97416.03;;;4.32;100.00
52319;BME280;38258;51.148;14.068;2024-03-23T13:56:27;97412.50;;;4.36;100.00